createdAt,value
2023-04-23T00:01:28.414Z,59.60
2023-04-23T00:03:58.533Z,59.60
2023-04-23T00:06:28.433Z,59.57
2023-04-23T00:09:00.128Z,59.69
2023-04-23T00:11:28.858Z,59.81
2023-04-23T00:13:56.916Z,59.82
2023-04-23T00:16:25.627Z,59.97
2023-04-23T00:18:53.569Z,60.17
2023-04-23T00:21:21.388Z,60.40
2023-04-23T00:23:49.312Z,60.44
2023-04-23T00:26:19.093Z,60.87
2023-04-23T00:28:47.031Z,61.15
2023-04-23T00:31:15.188Z,60.89
2023-04-23T00:33:43.080Z,60.94
2023-04-23T00:36:11.210Z,61.21
2023-04-23T00:38:39.198Z,61.23
2023-04-23T00:41:07.338Z,61.49
2023-04-23T00:43:37.556Z,61.67
2023-04-23T00:46:07.116Z,61.86
2023-04-23T00:48:35.948Z,62.08
2023-04-23T00:51:06.074Z,61.97
2023-04-23T00:53:34.068Z,61.93
2023-04-23T00:56:04.156Z,61.83
2023-04-23T00:58:33.337Z,61.82
2023-04-23T01:01:03.339Z,61.86
2023-04-23T01:03:32.519Z,61.94
2023-04-23T01:06:00.752Z,62.04
2023-04-23T01:08:30.090Z,62.23
2023-04-23T01:10:58.300Z,62.22
2023-04-23T01:13:30.076Z,62.16
2023-04-23T01:15:58.356Z,62.23
2023-04-23T01:18:27.218Z,62.36
2023-04-23T01:20:55.394Z,62.50
2023-04-23T01:23:23.342Z,62.71
2023-04-23T01:25:51.430Z,62.81
2023-04-23T01:28:19.500Z,63.68
2023-04-23T01:30:48.368Z,63.38
2023-04-23T01:33:16.580Z,63.72
2023-04-23T01:35:45.206Z,63.87
2023-04-23T01:38:14.925Z,64.10
2023-04-23T01:40:42.905Z,64.51
2023-04-23T01:43:10.921Z,64.21
2023-04-23T01:45:39.039Z,64.31
2023-04-23T01:48:08.212Z,64.27
2023-04-23T01:50:36.486Z,64.31
2023-04-23T01:53:04.435Z,64.19
2023-04-23T01:55:34.258Z,64.12
2023-04-23T01:58:02.205Z,64.12
2023-04-23T02:00:30.596Z,64.10
2023-04-23T02:02:58.608Z,64.02
2023-04-23T02:05:29.548Z,64.03
2023-04-23T02:07:57.325Z,64.00
2023-04-23T02:10:25.575Z,63.96
2023-04-23T02:12:53.351Z,63.91
2023-04-23T02:15:21.289Z,63.93
2023-04-23T02:17:51.120Z,63.90
2023-04-23T02:20:21.192Z,63.86
2023-04-23T02:22:52.671Z,63.72
2023-04-23T02:25:21.396Z,63.67
2023-04-23T02:27:50.148Z,63.71
2023-04-23T02:30:18.124Z,63.71
2023-04-23T02:32:46.403Z,63.70
2023-04-23T02:35:14.413Z,63.64
2023-04-23T02:37:42.159Z,63.66
2023-04-23T02:40:11.373Z,63.62
2023-04-23T02:42:40.312Z,63.56
2023-04-23T02:45:10.023Z,63.56
2023-04-23T02:47:38.315Z,63.50
2023-04-23T02:50:07.563Z,63.42
2023-04-23T02:52:38.428Z,63.28
2023-04-23T02:55:08.602Z,63.23
2023-04-23T02:57:43.976Z,63.23
2023-04-23T03:00:19.593Z,63.28
2023-04-23T03:02:47.989Z,63.25
2023-04-23T03:05:16.449Z,63.23
2023-04-23T03:07:44.376Z,63.22
2023-04-23T03:10:12.535Z,63.23
2023-04-23T03:12:40.417Z,63.28
2023-04-23T03:15:11.297Z,63.31
2023-04-23T03:17:39.597Z,63.39
2023-04-23T03:20:11.010Z,63.49
2023-04-23T03:22:39.120Z,63.54
2023-04-23T03:25:08.744Z,63.87
2023-04-23T03:27:44.089Z,63.84
2023-04-23T03:30:12.460Z,63.99
2023-04-23T03:32:40.908Z,64.34
2023-04-23T03:35:09.310Z,64.26
2023-04-23T03:37:37.612Z,64.28
2023-04-23T03:40:07.969Z,64.42
2023-04-23T03:42:37.092Z,64.81
2023-04-23T03:45:06.823Z,64.89
2023-04-23T03:47:36.366Z,64.98
2023-04-23T03:50:05.227Z,64.95
2023-04-23T03:52:33.369Z,65.31
2023-04-23T03:55:02.441Z,64.92
2023-04-23T03:57:32.135Z,64.84
2023-04-23T04:00:09.125Z,64.82
2023-04-23T04:02:40.416Z,64.69
2023-04-23T04:05:10.922Z,64.58
2023-04-23T04:07:44.503Z,64.68
2023-04-23T04:10:13.407Z,64.62
2023-04-23T04:12:41.930Z,64.89
2023-04-23T04:15:13.209Z,64.56
2023-04-23T04:17:41.033Z,64.43
2023-04-23T04:20:10.698Z,64.24
2023-04-23T04:22:38.781Z,64.10
2023-04-23T04:25:07.427Z,63.98
2023-04-23T04:27:35.717Z,63.89
2023-04-23T04:30:05.021Z,63.84
2023-04-23T04:32:32.963Z,63.74
2023-04-23T04:35:02.229Z,63.65
2023-04-23T04:37:29.999Z,63.72
2023-04-23T04:39:57.975Z,63.50
2023-04-23T04:42:25.811Z,63.47
2023-04-23T04:44:53.627Z,63.34
2023-04-23T04:47:21.857Z,63.33
2023-04-23T04:49:49.570Z,63.32
2023-04-23T04:52:17.547Z,63.27
2023-04-23T04:54:45.546Z,63.20
2023-04-23T04:57:13.423Z,63.18
2023-04-23T04:59:41.871Z,63.12
2023-04-23T05:02:10.392Z,63.00
2023-04-23T05:04:42.526Z,63.15
2023-04-23T05:07:13.023Z,63.30
2023-04-23T05:09:44.820Z,63.24
2023-04-23T05:12:13.247Z,63.07
2023-04-23T05:14:46.327Z,63.02
2023-04-23T05:17:16.481Z,62.85
2023-04-23T05:19:44.779Z,62.69
2023-04-23T05:22:12.934Z,62.38
2023-04-23T05:24:41.226Z,61.78
2023-04-23T05:27:19.770Z,61.32
2023-04-23T05:29:48.025Z,61.08
2023-04-23T05:32:16.511Z,60.86
2023-04-23T05:34:44.619Z,60.06
2023-04-23T05:37:12.558Z,59.82
2023-04-23T05:39:43.937Z,59.21
2023-04-23T05:42:12.469Z,58.70
2023-04-23T05:44:41.600Z,58.90
2023-04-23T05:47:12.888Z,58.72
2023-04-23T05:49:43.787Z,58.57
2023-04-23T05:52:19.870Z,58.33
2023-04-23T05:55:05.885Z,57.93
2023-04-23T05:57:40.541Z,57.34
2023-04-23T06:00:12.648Z,56.52
2023-04-23T06:02:42.721Z,56.52
2023-04-23T06:05:11.246Z,56.20
2023-04-23T06:07:40.893Z,55.03
2023-04-23T06:10:11.351Z,54.69
2023-04-23T06:16:17.674Z,53.07
2023-04-23T06:19:01.182Z,50.84
2023-04-23T06:28:15.654Z,44.49
2023-04-23T06:30:54.678Z,45.06
2023-04-23T06:33:40.163Z,45.08
2023-04-23T06:36:22.321Z,44.04
2023-04-23T06:39:03.279Z,42.06
2023-04-23T06:41:43.805Z,41.94
2023-04-23T06:44:45.766Z,41.82
2023-04-23T06:47:35.183Z,42.05
2023-04-23T06:50:13.354Z,41.65
2023-04-23T06:53:01.629Z,41.16
2023-04-23T06:55:36.088Z,41.43
2023-04-23T06:58:44.170Z,41.39
2023-04-23T07:04:42.390Z,40.47
2023-04-23T07:07:35.461Z,39.56
2023-04-23T07:10:38.238Z,39.38
2023-04-23T07:13:23.461Z,39.64
2023-04-23T07:16:27.394Z,39.78
2023-04-23T07:19:18.555Z,39.25
2023-04-23T07:22:27.765Z,38.89
2023-04-23T07:24:52.124Z,38.56
2023-04-23T07:27:26.489Z,38.53
2023-04-23T07:30:03.498Z,37.80
2023-04-23T07:32:34.997Z,37.18
2023-04-23T07:35:14.421Z,35.79
2023-04-23T07:37:48.460Z,36.21
2023-04-23T07:40:23.928Z,34.19
2023-04-23T07:46:13.750Z,34.69
2023-04-23T07:48:56.128Z,34.35
2023-04-23T07:51:39.956Z,34.20
2023-04-23T07:54:31.671Z,33.74
2023-04-23T07:57:16.689Z,32.94
2023-04-23T07:59:53.702Z,34.36
2023-04-23T08:02:29.356Z,34.62
2023-04-23T08:05:04.552Z,34.80
2023-04-23T08:07:48.885Z,33.92
2023-04-23T08:10:23.485Z,33.57
2023-04-23T08:13:07.446Z,34.05
2023-04-23T08:15:40.265Z,33.62
2023-04-23T08:18:15.570Z,33.52
2023-04-23T08:20:51.942Z,32.90
2023-04-23T08:23:29.883Z,32.11
2023-04-23T08:26:09.347Z,32.81
2023-04-23T08:28:39.010Z,31.66
2023-04-23T08:31:26.250Z,31.04
2023-04-23T08:33:59.114Z,31.17
2023-04-23T08:36:41.122Z,29.90
2023-04-23T08:39:14.045Z,30.68
2023-04-23T08:41:50.861Z,28.18
2023-04-23T08:44:28.238Z,28.78
2023-04-23T08:47:02.862Z,27.73
2023-04-23T08:49:34.767Z,28.71
2023-04-23T08:52:16.970Z,28.92
2023-04-23T08:54:49.328Z,26.96
2023-04-23T08:57:17.990Z,27.87
2023-04-23T08:59:47.449Z,29.29
2023-04-23T09:02:16.999Z,29.79
2023-04-23T09:04:46.331Z,29.95
2023-04-23T09:07:15.430Z,30.24
2023-04-23T09:09:44.849Z,29.79
2023-04-23T09:12:12.889Z,29.33
2023-04-23T09:14:41.132Z,29.63
2023-04-23T09:17:09.455Z,28.94
2023-04-23T09:19:40.664Z,29.00
2023-04-23T09:22:09.568Z,28.28
2023-04-23T09:24:37.449Z,28.29
2023-04-23T09:27:05.577Z,29.07
2023-04-23T09:29:33.573Z,28.60
2023-04-23T09:32:09.852Z,28.85
2023-04-23T09:34:38.260Z,28.95
2023-04-23T09:37:10.782Z,27.75
2023-04-23T09:39:40.736Z,27.66
2023-04-23T09:42:10.743Z,28.34
2023-04-23T09:44:38.697Z,28.19
2023-04-23T09:47:14.004Z,26.82
2023-04-23T09:49:50.592Z,27.12
2023-04-23T09:52:19.097Z,27.80
2023-04-23T09:54:47.105Z,28.50
2023-04-23T09:57:14.957Z,27.25
2023-04-23T09:59:47.711Z,27.97
2023-04-23T10:02:16.322Z,27.39
2023-04-23T10:04:44.699Z,28.18
2023-04-23T10:09:43.528Z,27.05
2023-04-23T10:12:29.575Z,26.47
2023-04-23T10:14:44.610Z,25.19
2023-04-23T10:17:12.824Z,25.37
2023-04-23T10:19:43.374Z,25.51
2023-04-23T10:22:19.125Z,25.86
2023-04-23T10:24:49.163Z,24.55
2023-04-23T10:29:55.061Z,24.50
2023-04-23T10:32:24.489Z,22.97
2023-04-23T10:34:53.461Z,22.86
2023-04-23T10:37:22.367Z,23.13
2023-04-23T10:39:54.976Z,22.97
2023-04-23T10:42:23.692Z,22.81
2023-04-23T10:45:02.726Z,23.08
2023-04-23T10:47:31.269Z,23.12
2023-04-23T10:50:04.744Z,24.11
2023-04-23T10:52:33.003Z,23.70
2023-04-23T10:55:01.313Z,23.02
2023-04-23T10:57:29.488Z,22.96
2023-04-23T10:59:58.605Z,22.79
2023-04-23T11:02:26.852Z,23.07
2023-04-23T11:04:58.818Z,23.19
2023-04-23T11:07:33.278Z,25.76
2023-04-23T11:10:15.578Z,27.33
2023-04-23T11:12:45.022Z,27.95
2023-04-23T11:15:16.240Z,28.30
2023-04-23T11:17:49.863Z,28.94
2023-04-23T11:20:23.425Z,28.54
2023-04-23T11:22:52.982Z,29.55
2023-04-23T11:25:26.110Z,30.16
2023-04-23T11:28:01.304Z,30.00
2023-04-23T11:30:30.582Z,30.18
2023-04-23T11:33:00.771Z,29.86
2023-04-23T11:35:30.054Z,30.05
2023-04-23T11:37:58.120Z,29.90
2023-04-23T11:40:28.106Z,29.36
2023-04-23T11:42:57.129Z,30.19
2023-04-23T11:45:28.038Z,30.53
2023-04-23T11:47:58.517Z,29.46
2023-04-23T11:50:30.077Z,30.12
2023-04-23T11:52:58.743Z,30.39
2023-04-23T11:55:28.961Z,30.53
2023-04-23T11:58:00.001Z,31.10
2023-04-23T12:00:28.114Z,30.76
2023-04-23T12:02:59.593Z,30.80
2023-04-23T12:05:39.084Z,30.42
2023-04-23T12:08:15.962Z,30.74
2023-04-23T12:10:57.351Z,30.64
2023-04-23T12:13:30.752Z,31.16
2023-04-23T12:16:01.507Z,32.27
2023-04-23T12:18:32.886Z,32.10
2023-04-23T12:21:12.926Z,30.14
2023-04-23T12:23:44.206Z,29.72
2023-04-23T12:26:16.504Z,29.60
2023-04-23T12:28:56.648Z,29.71
2023-04-23T12:31:29.603Z,28.36
2023-04-23T12:34:10.232Z,28.97
2023-04-23T12:36:40.651Z,28.28
2023-04-23T12:39:33.525Z,27.47
2023-04-23T12:42:06.208Z,27.08
2023-04-23T12:44:36.886Z,27.39
2023-04-23T12:47:11.733Z,26.51
2023-04-23T12:49:43.289Z,27.27
2023-04-23T12:52:14.012Z,27.91
2023-04-23T12:54:49.708Z,27.34
2023-04-23T12:57:21.170Z,27.50
2023-04-23T12:59:51.516Z,27.02
2023-04-23T13:02:19.905Z,27.56
2023-04-23T13:04:48.242Z,27.61
2023-04-23T13:07:16.392Z,28.06
2023-04-23T13:09:45.651Z,28.48
2023-04-23T13:12:13.852Z,28.57
2023-04-23T13:14:41.960Z,28.73
2023-04-23T13:17:09.865Z,28.43
2023-04-23T13:19:39.438Z,28.39
2023-04-23T13:22:08.631Z,28.56
2023-04-23T13:24:37.207Z,28.65
2023-04-23T13:27:05.437Z,28.23
2023-04-23T13:29:33.609Z,28.07
2023-04-23T13:32:01.710Z,27.87
2023-04-23T13:34:30.425Z,27.71
2023-04-23T13:37:03.044Z,27.50
2023-04-23T13:39:32.386Z,27.57
2023-04-23T13:42:09.076Z,27.59
2023-04-23T13:44:32.059Z,27.73
2023-04-23T13:47:01.461Z,27.44
2023-04-23T13:49:30.257Z,27.26
2023-04-23T13:52:00.139Z,28.08
2023-04-23T13:54:29.273Z,28.76
2023-04-23T13:56:58.893Z,29.39
2023-04-23T13:59:27.324Z,29.93
2023-04-23T14:01:55.321Z,30.69
2023-04-23T14:04:25.037Z,30.90
2023-04-23T14:06:53.272Z,30.02
2023-04-23T14:09:23.902Z,30.46
2023-04-23T14:11:54.922Z,30.51
2023-04-23T14:14:36.247Z,30.66
2023-04-23T14:17:04.444Z,30.44
2023-04-23T14:19:35.068Z,30.46
2023-04-23T14:22:04.003Z,30.80
2023-04-23T14:24:40.127Z,30.85
2023-04-23T14:27:09.100Z,30.82
2023-04-23T14:29:48.427Z,31.19
2023-04-23T14:32:16.552Z,31.48
2023-04-23T14:34:46.031Z,31.68
2023-04-23T14:37:17.383Z,31.90
2023-04-23T14:39:46.502Z,31.82
2023-04-23T14:42:15.425Z,31.57
2023-04-23T14:44:45.607Z,31.74
2023-04-23T14:47:16.616Z,31.86
2023-04-23T14:49:47.924Z,31.88
2023-04-23T14:52:17.103Z,31.61
2023-04-23T14:54:46.105Z,31.17
2023-04-23T14:57:14.182Z,30.52
2023-04-23T14:59:47.785Z,30.09
2023-04-23T15:02:16.833Z,29.93
2023-04-23T15:04:45.855Z,29.97
2023-04-23T15:07:13.923Z,29.49
2023-04-23T15:09:42.338Z,29.74
2023-04-23T15:12:24.682Z,29.93
2023-04-23T15:14:54.794Z,29.74
2023-04-23T15:17:23.148Z,29.63
2023-04-23T15:19:52.822Z,29.69
2023-04-23T15:22:20.888Z,30.04
2023-04-23T15:24:49.086Z,30.13
2023-04-23T15:27:17.159Z,30.17
2023-04-23T15:29:45.110Z,30.04
2023-04-23T15:32:32.028Z,30.04
2023-04-23T15:35:08.436Z,29.74
2023-04-23T15:37:36.645Z,29.37
2023-04-23T15:40:07.560Z,29.56
2023-04-23T15:42:35.439Z,29.12
2023-04-23T15:45:04.287Z,29.37
2023-04-23T15:47:32.324Z,29.22
2023-04-23T15:50:01.633Z,29.32
2023-04-23T15:52:30.699Z,29.66
2023-04-23T15:54:59.211Z,29.93
2023-04-23T15:57:27.261Z,29.90
2023-04-23T15:59:57.548Z,29.38
2023-04-23T16:02:25.407Z,29.59
2023-04-23T16:04:55.363Z,29.62
2023-04-23T16:07:23.224Z,29.56
2023-04-23T16:09:51.227Z,29.51
2023-04-23T16:12:19.098Z,29.62
2023-04-23T16:14:47.107Z,29.42
2023-04-23T16:17:16.484Z,29.37
2023-04-23T16:19:45.000Z,29.54
2023-04-23T16:22:14.350Z,29.41
2023-04-23T16:24:42.380Z,29.38
2023-04-23T16:27:16.013Z,29.47
2023-04-23T16:29:44.643Z,29.47
2023-04-23T16:32:12.753Z,29.41
2023-04-23T16:34:41.156Z,29.64
2023-04-23T16:37:09.803Z,29.88
2023-04-23T16:39:37.665Z,30.19
2023-04-23T16:42:06.291Z,30.72
2023-04-23T16:44:34.451Z,31.05
2023-04-23T16:47:02.569Z,31.48
2023-04-23T16:49:30.742Z,32.10
2023-04-23T16:51:58.343Z,32.32
2023-04-23T16:54:26.492Z,32.64
2023-04-23T16:56:55.270Z,32.92
2023-04-23T16:59:25.005Z,33.24
2023-04-23T17:02:02.238Z,33.88
2023-04-23T17:04:30.412Z,33.97
2023-04-23T17:06:58.514Z,35.35
2023-04-23T17:09:26.426Z,35.44
2023-04-23T17:11:54.488Z,35.74
2023-04-23T17:14:22.687Z,36.03
2023-04-23T17:16:50.421Z,36.12
2023-04-23T17:19:18.197Z,36.24
2023-04-23T17:21:45.933Z,36.33
2023-04-23T17:24:16.517Z,36.42
2023-04-23T17:26:44.725Z,36.90
2023-04-23T17:29:15.528Z,37.09
2023-04-23T17:31:43.414Z,37.08
2023-04-23T17:34:11.385Z,37.30
2023-04-23T17:36:39.427Z,37.46
2023-04-23T17:39:15.999Z,37.68
2023-04-23T17:41:43.934Z,38.18
2023-04-23T17:44:15.233Z,38.50
2023-04-23T17:46:43.032Z,38.39
2023-04-23T17:49:11.778Z,38.32
2023-04-23T17:51:42.127Z,38.42
2023-04-23T17:54:12.228Z,38.43
2023-04-23T17:56:45.482Z,38.49
2023-04-23T17:59:13.654Z,38.64
2023-04-23T18:01:46.326Z,38.73
2023-04-23T18:04:13.993Z,38.70
2023-04-23T18:06:42.965Z,39.03
2023-04-23T18:09:11.351Z,39.47
2023-04-23T18:11:39.866Z,39.64
2023-04-23T18:14:07.963Z,40.84
2023-04-23T18:16:36.467Z,40.87
2023-04-23T18:19:04.597Z,41.02
2023-04-23T18:21:33.597Z,41.29
2023-04-23T18:24:01.534Z,41.92
2023-04-23T18:26:33.456Z,41.95
2023-04-23T18:29:01.960Z,42.05
2023-04-23T18:31:34.144Z,42.24
2023-04-23T18:34:10.877Z,42.28
2023-04-23T18:36:44.277Z,43.01
2023-04-23T18:39:12.515Z,43.15
2023-04-23T18:41:55.567Z,43.39
2023-04-23T18:44:25.676Z,43.59
2023-04-23T18:46:53.862Z,43.74
2023-04-23T18:49:41.210Z,43.98
2023-04-23T18:52:12.097Z,44.19
2023-04-23T18:54:43.687Z,44.41
2023-04-23T18:57:11.851Z,44.69
2023-04-23T18:59:40.183Z,44.69
2023-04-23T19:02:18.784Z,44.96
2023-04-23T19:04:47.281Z,45.05
2023-04-23T19:07:17.293Z,45.30
2023-04-23T19:09:45.516Z,45.57
2023-04-23T19:12:20.045Z,45.73
2023-04-23T19:14:50.233Z,46.05
2023-04-23T19:17:20.916Z,45.95
2023-04-23T19:19:49.791Z,46.07
2023-04-23T19:22:23.612Z,46.55
2023-04-23T19:24:52.896Z,46.47
2023-04-23T19:27:24.413Z,46.79
2023-04-23T19:29:58.637Z,46.95
2023-04-23T19:32:30.452Z,47.21
2023-04-23T19:35:01.707Z,47.82
2023-04-23T19:37:31.630Z,47.60
2023-04-23T19:40:00.620Z,47.65
2023-04-23T19:42:31.293Z,47.79
2023-04-23T19:44:59.861Z,47.87
2023-04-23T19:47:28.427Z,48.02
2023-04-23T19:49:56.982Z,47.86
2023-04-23T19:52:27.832Z,48.21
2023-04-23T19:54:59.334Z,48.05
2023-04-23T19:57:30.422Z,48.18
2023-04-23T20:00:01.152Z,48.12
2023-04-23T20:02:29.231Z,48.14
2023-04-23T20:04:57.301Z,48.46
2023-04-23T20:07:25.677Z,48.52
2023-04-23T20:09:56.694Z,48.62
2023-04-23T20:12:25.184Z,48.77
2023-04-23T20:14:53.901Z,48.84
2023-04-23T20:17:23.360Z,48.58
2023-04-23T20:19:52.112Z,48.47
2023-04-23T20:22:20.401Z,48.85
2023-04-23T20:24:48.596Z,49.11
2023-04-23T20:27:16.644Z,49.21
2023-04-23T20:29:44.808Z,49.38
2023-04-23T20:32:13.468Z,49.27
2023-04-23T20:34:41.614Z,49.69
2023-04-23T20:37:10.441Z,49.73
2023-04-23T20:39:45.289Z,49.88
2023-04-23T20:42:18.531Z,50.30
2023-04-23T20:44:46.632Z,50.19
2023-04-23T20:47:16.252Z,50.15
2023-04-23T20:49:48.974Z,50.23
2023-04-23T20:52:17.154Z,50.47
2023-04-23T20:54:48.612Z,50.63
2023-04-23T20:57:17.167Z,50.82
2023-04-23T20:59:45.127Z,51.22
2023-04-23T21:02:17.018Z,51.25
2023-04-23T21:04:44.973Z,51.53
2023-04-23T21:07:13.016Z,52.06
2023-04-23T21:09:41.594Z,52.19
2023-04-23T21:12:13.078Z,52.56
2023-04-23T21:18:03.737Z,53.13
2023-04-23T21:20:32.144Z,53.42
2023-04-23T21:23:00.823Z,53.67
2023-04-23T21:25:28.922Z,53.87
2023-04-23T21:27:58.123Z,54.13
2023-04-23T21:30:43.155Z,54.25
2023-04-23T21:33:11.328Z,54.75
2023-04-23T21:35:41.857Z,54.70
2023-04-23T21:38:12.502Z,54.99
2023-04-23T21:40:41.438Z,55.64
2023-04-23T21:43:10.090Z,56.02
2023-04-23T21:45:39.303Z,56.05
2023-04-23T21:48:07.495Z,56.01
2023-04-23T21:50:35.740Z,56.24
2023-04-23T21:53:03.563Z,56.67
2023-04-23T21:55:31.580Z,56.52
2023-04-23T21:58:13.800Z,56.72
2023-04-23T22:00:30.366Z,56.94
2023-04-23T22:02:58.550Z,57.02
2023-04-23T22:05:28.055Z,57.26
2023-04-23T22:07:57.845Z,57.50
2023-04-23T22:10:26.663Z,57.56
2023-04-23T22:12:55.727Z,57.52
2023-04-23T22:15:44.718Z,57.72
2023-04-23T22:18:13.019Z,58.08
2023-04-23T22:20:42.752Z,58.65
2023-04-23T22:23:10.811Z,58.83
2023-04-23T22:25:38.606Z,59.04
2023-04-23T22:28:07.160Z,59.41
2023-04-23T22:30:36.126Z,59.70
2023-04-23T22:33:05.061Z,59.94
2023-04-23T22:35:33.089Z,60.11
2023-04-23T22:38:03.568Z,60.25
2023-04-23T22:40:32.015Z,60.41
2023-04-23T22:43:00.875Z,60.81
2023-04-23T22:45:30.454Z,60.84
2023-04-23T22:47:58.495Z,61.18
2023-04-23T22:50:28.731Z,61.39
2023-04-23T22:52:56.730Z,61.66
2023-04-23T22:55:24.639Z,61.85
2023-04-23T22:57:52.503Z,62.05
2023-04-23T23:00:20.388Z,62.10
2023-04-23T23:02:48.301Z,62.13
2023-04-23T23:05:16.384Z,62.44
2023-04-23T23:07:44.216Z,62.44
2023-04-23T23:10:12.229Z,62.59
2023-04-23T23:12:40.043Z,62.70
2023-04-23T23:15:09.911Z,63.02
2023-04-23T23:17:38.050Z,63.02
2023-04-23T23:20:13.831Z,63.29
2023-04-23T23:22:42.703Z,63.15
2023-04-23T23:25:10.712Z,64.09
2023-04-23T23:27:38.688Z,63.49
2023-04-23T23:30:09.030Z,63.59
2023-04-23T23:32:38.851Z,63.67
2023-04-23T23:35:07.765Z,63.77
2023-04-23T23:37:35.835Z,63.91
2023-04-23T23:40:06.366Z,63.87
2023-04-23T23:42:34.462Z,63.84
2023-04-23T23:45:02.430Z,63.86
2023-04-23T23:47:31.065Z,63.81
2023-04-23T23:49:58.903Z,63.72
2023-04-23T23:52:27.164Z,63.96
2023-04-23T23:54:55.175Z,63.96
2023-04-23T23:57:27.972Z,63.71
2023-04-23T23:59:56.465Z,63.99
